sensor_id;sensor_type;location;lat;lon;timestamp;pressure;altitude;pressure_sealevel;temperature;humidity
42671;BME280;28283;55.426;37.756;2023-02-18T00:04:38;99479.66;;;-9.96;76.93
42671;BME280;28283;55.426;37.756;2023-02-18T00:09:39;99393.06;;;-10.56;76.86
42671;BME280;28283;55.426;37.756;2023-02-18T00:14:39;99472.09;;;-10.01;77.60
42671;BME280;28283;55.426;37.756;2023-02-18T00:19:40;99470.31;;;-10.01;77.68
42671;BME280;28283;55.426;37.756;2023-02-18T00:24:41;99423.78;;;-10.26;77.93
42671;BME280;28283;55.426;37.756;2023-02-18T00:29:41;99450.41;;;-10.21;77.64
42671;BME280;28283;55.426;37.756;2023-02-18T00:34:42;99462.94;;;-10.10;77.28
42671;BME280;28283;55.426;37.756;2023-02-18T00:39:43;99458.03;;;-9.97;77.40
42671;BME280;28283;55.426;37.756;2023-02-18T00:44:43;99449.66;;;-10.04;77.12
42671;BME280;28283;55.426;37.756;2023-02-18T00:49:44;99417.19;;;-10.33;77.15
42671;BME280;28283;55.426;37.756;2023-02-18T00:54:44;99433.19;;;-10.23;77.46
42671;BME280;28283;55.426;37.756;2023-02-18T00:59:45;99389.34;;;-10.50;77.14
42671;BME280;28283;55.426;37.756;2023-02-18T01:04:46;99403.03;;;-10.46;77.45
42671;BME280;28283;55.426;37.756;2023-02-18T01:09:47;99413.81;;;-10.35;77.50
42671;BME280;28283;55.426;37.756;2023-02-18T01:14:47;99417.75;;;-10.26;77.99
42671;BME280;28283;55.426;37.756;2023-02-18T01:19:48;99374.44;;;-10.46;78.15
42671;BME280;28283;55.426;37.756;2023-02-18T01:24:49;99380.81;;;-10.33;77.40
42671;BME280;28283;55.426;37.756;2023-02-18T01:29:49;99349.19;;;-10.43;77.60
42671;BME280;28283;55.426;37.756;2023-02-18T01:34:50;99365.81;;;-10.28;78.69
42671;BME280;28283;55.426;37.756;2023-02-18T01:39:50;99351.38;;;-10.33;77.89
42671;BME280;28283;55.426;37.756;2023-02-18T01:44:51;99349.56;;;-10.31;77.70
42671;BME280;28283;55.426;37.756;2023-02-18T01:49:52;99341.84;;;-10.33;77.93
42671;BME280;28283;55.426;37.756;2023-02-18T01:54:56;99335.69;;;-10.32;77.43
42671;BME280;28283;55.426;37.756;2023-02-18T02:00:04;99317.81;;;-10.38;78.37
42671;BME280;28283;55.426;37.756;2023-02-18T02:05:06;99326.84;;;-10.28;77.87
42671;BME280;28283;55.426;37.756;2023-02-18T02:10:08;99311.25;;;-10.28;78.06
42671;BME280;28283;55.426;37.756;2023-02-18T02:31:25;99299.16;;;-10.10;77.57
42671;BME280;28283;55.426;37.756;2023-02-18T02:36:41;99299.91;;;-10.08;78.34
42671;BME280;28283;55.426;37.756;2023-02-18T02:41:56;99286.63;;;-10.02;78.72
42671;BME280;28283;55.426;37.756;2023-02-18T02:47:08;99275.69;;;-9.91;78.29
42671;BME280;28283;55.426;37.756;2023-02-18T02:52:24;99263.38;;;-9.87;78.34
42671;BME280;28283;55.426;37.756;2023-02-18T03:08:40;99242.91;;;-9.58;78.19
42671;BME280;28283;55.426;37.756;2023-02-18T03:14:09;99226.00;;;-9.50;78.45
42671;BME280;28283;55.426;37.756;2023-02-18T03:19:23;99216.06;;;-9.42;77.84
42671;BME280;28283;55.426;37.756;2023-02-18T03:24:29;99215.50;;;-9.31;78.10
42671;BME280;28283;55.426;37.756;2023-02-18T03:29:31;99199.88;;;-9.31;78.78
42671;BME280;28283;55.426;37.756;2023-02-18T03:34:37;99160.13;;;-9.50;79.17
42671;BME280;28283;55.426;37.756;2023-02-18T03:39:43;99192.84;;;-9.29;79.27
42671;BME280;28283;55.426;37.756;2023-02-18T03:44:45;99196.09;;;-9.08;78.99
42671;BME280;28283;55.426;37.756;2023-02-18T03:49:46;99171.97;;;-9.11;78.71
42671;BME280;28283;55.426;37.756;2023-02-18T03:54:47;99152.06;;;-9.12;78.74
42671;BME280;28283;55.426;37.756;2023-02-18T03:59:47;99158.78;;;-9.08;78.17
42671;BME280;28283;55.426;37.756;2023-02-18T04:04:48;99160.31;;;-9.04;79.00
42671;BME280;28283;55.426;37.756;2023-02-18T04:09:49;99144.75;;;-9.06;79.01
42671;BME280;28283;55.426;37.756;2023-02-18T04:14:50;99149.69;;;-9.01;78.52
42671;BME280;28283;55.426;37.756;2023-02-18T04:19:50;99099.16;;;-9.13;79.10
42671;BME280;28283;55.426;37.756;2023-02-18T04:24:51;99113.66;;;-9.09;78.65
42671;BME280;28283;55.426;37.756;2023-02-18T04:29:52;99089.41;;;-9.09;78.33
42671;BME280;28283;55.426;37.756;2023-02-18T04:34:53;99051.44;;;-9.45;79.21
42671;BME280;28283;55.426;37.756;2023-02-18T04:39:53;99078.31;;;-9.29;79.29
42671;BME280;28283;55.426;37.756;2023-02-18T04:44:54;99084.78;;;-9.20;79.03
42671;BME280;28283;55.426;37.756;2023-02-18T04:49:55;99083.59;;;-9.14;78.78
42671;BME280;28283;55.426;37.756;2023-02-18T04:54:55;99084.13;;;-9.08;79.11
42671;BME280;28283;55.426;37.756;2023-02-18T04:59:56;99106.19;;;-8.99;78.16
42671;BME280;28283;55.426;37.756;2023-02-18T05:04:57;99050.34;;;-9.25;77.99
42671;BME280;28283;55.426;37.756;2023-02-18T05:09:57;99079.47;;;-9.03;78.42
42671;BME280;28283;55.426;37.756;2023-02-18T05:14:58;99068.16;;;-9.02;78.40
42671;BME280;28283;55.426;37.756;2023-02-18T05:20:00;99061.84;;;-9.13;78.50
42671;BME280;28283;55.426;37.756;2023-02-18T05:25:01;99054.22;;;-9.16;78.41
42671;BME280;28283;55.426;37.756;2023-02-18T05:30:01;99035.63;;;-9.26;79.28
42671;BME280;28283;55.426;37.756;2023-02-18T05:35:02;99053.53;;;-9.04;78.96
42671;BME280;28283;55.426;37.756;2023-02-18T05:40:04;99028.75;;;-9.11;78.70
42671;BME280;28283;55.426;37.756;2023-02-18T05:45:05;99022.09;;;-9.01;78.66
42671;BME280;28283;55.426;37.756;2023-02-18T05:50:07;99024.53;;;-8.98;79.32
42671;BME280;28283;55.426;37.756;2023-02-18T05:55:07;99017.22;;;-8.91;79.10
42671;BME280;28283;55.426;37.756;2023-02-18T06:00:08;99005.78;;;-8.89;78.91
42671;BME280;28283;55.426;37.756;2023-02-18T06:05:09;99003.75;;;-8.84;79.08
42671;BME280;28283;55.426;37.756;2023-02-18T06:10:11;98994.94;;;-8.81;79.14
42671;BME280;28283;55.426;37.756;2023-02-18T06:15:12;98937.03;;;-9.00;78.45
42671;BME280;28283;55.426;37.756;2023-02-18T06:20:13;98977.50;;;-8.65;77.93
42671;BME280;28283;55.426;37.756;2023-02-18T06:25:13;98971.19;;;-8.60;78.34
42671;BME280;28283;55.426;37.756;2023-02-18T06:30:14;98954.72;;;-8.61;78.36
42671;BME280;28283;55.426;37.756;2023-02-18T06:35:15;98924.25;;;-8.75;77.68
42671;BME280;28283;55.426;37.756;2023-02-18T06:40:16;98946.84;;;-8.45;78.41
42671;BME280;28283;55.426;37.756;2023-02-18T06:45:18;98939.19;;;-8.34;77.16
42671;BME280;28283;55.426;37.756;2023-02-18T06:50:18;98931.19;;;-8.31;78.14
42671;BME280;28283;55.426;37.756;2023-02-18T06:55:19;98920.53;;;-8.13;76.67
42671;BME280;28283;55.426;37.756;2023-02-18T07:00:20;98901.38;;;-8.12;77.78
42671;BME280;28283;55.426;37.756;2023-02-18T07:05:22;98888.03;;;-8.08;76.92
42671;BME280;28283;55.426;37.756;2023-02-18T07:10:23;98890.28;;;-8.01;77.66
42671;BME280;28283;55.426;37.756;2023-02-18T07:15:23;98875.38;;;-7.99;76.66
42671;BME280;28283;55.426;37.756;2023-02-18T07:20:26;98833.72;;;-8.01;76.24
42671;BME280;28283;55.426;37.756;2023-02-18T07:25:27;98855.06;;;-7.94;75.37
42671;BME280;28283;55.426;37.756;2023-02-18T07:30:27;98861.47;;;-7.85;76.85
42671;BME280;28283;55.426;37.756;2023-02-18T07:35:28;98828.19;;;-7.82;75.40
42671;BME280;28283;55.426;37.756;2023-02-18T07:40:29;98838.53;;;-7.80;76.18
42671;BME280;28283;55.426;37.756;2023-02-18T07:45:29;98849.41;;;-7.74;75.74
42671;BME280;28283;55.426;37.756;2023-02-18T07:50:30;98788.31;;;-7.84;75.18
42671;BME280;28283;55.426;37.756;2023-02-18T07:55:35;98820.09;;;-7.37;74.87
42671;BME280;28283;55.426;37.756;2023-02-18T08:00:51;98820.03;;;-7.50;75.16
42671;BME280;28283;55.426;37.756;2023-02-18T08:05:56;98795.22;;;-7.43;74.38
42671;BME280;28283;55.426;37.756;2023-02-18T08:10:59;98798.59;;;-7.41;75.26
42671;BME280;28283;55.426;37.756;2023-02-18T08:16:02;98787.63;;;-7.33;74.03
42671;BME280;28283;55.426;37.756;2023-02-18T08:21:03;98788.97;;;-7.27;74.79
42671;BME280;28283;55.426;37.756;2023-02-18T08:26:04;98757.13;;;-7.33;75.33
42671;BME280;28283;55.426;37.756;2023-02-18T08:31:05;98750.44;;;-7.11;75.28
42671;BME280;28283;55.426;37.756;2023-02-18T08:36:06;98744.19;;;-6.96;74.96
42671;BME280;28283;55.426;37.756;2023-02-18T08:41:07;98727.25;;;-6.90;74.98
42671;BME280;28283;55.426;37.756;2023-02-18T08:46:09;98689.72;;;-7.02;74.76
42671;BME280;28283;55.426;37.756;2023-02-18T08:51:16;98708.91;;;-6.64;74.77
42671;BME280;28283;55.426;37.756;2023-02-18T08:56:17;98707.38;;;-6.43;75.17
42671;BME280;28283;55.426;37.756;2023-02-18T09:01:18;98709.97;;;-6.30;74.41
42671;BME280;28283;55.426;37.756;2023-02-18T09:06:20;98711.63;;;-6.29;74.08
42671;BME280;28283;55.426;37.756;2023-02-18T09:11:20;98708.81;;;-6.26;74.50
42671;BME280;28283;55.426;37.756;2023-02-18T09:16:21;98700.56;;;-6.08;74.62
42671;BME280;28283;55.426;37.756;2023-02-18T09:21:22;98661.56;;;-6.11;73.64
42671;BME280;28283;55.426;37.756;2023-02-18T09:26:23;98667.53;;;-5.98;73.24
42671;BME280;28283;55.426;37.756;2023-02-18T09:31:26;98667.44;;;-5.97;72.97
42671;BME280;28283;55.426;37.756;2023-02-18T09:36:28;98640.34;;;-5.96;72.54
42671;BME280;28283;55.426;37.756;2023-02-18T09:41:39;98632.19;;;-5.92;72.84
42671;BME280;28283;55.426;37.756;2023-02-18T09:46:55;98627.47;;;-5.76;72.31
42671;BME280;28283;55.426;37.756;2023-02-18T09:52:19;98611.34;;;-5.70;71.81
42671;BME280;28283;55.426;37.756;2023-02-18T09:57:47;98598.22;;;-5.81;71.48
42671;BME280;28283;55.426;37.756;2023-02-18T10:02:58;98592.13;;;-5.82;71.71
42671;BME280;28283;55.426;37.756;2023-02-18T10:08:18;98581.34;;;-5.77;71.82
42671;BME280;28283;55.426;37.756;2023-02-18T10:13:23;98570.03;;;-5.78;72.06
42671;BME280;28283;55.426;37.756;2023-02-18T10:18:29;98569.81;;;-5.63;72.37
42671;BME280;28283;55.426;37.756;2023-02-18T10:23:33;98556.94;;;-5.44;71.41
42671;BME280;28283;55.426;37.756;2023-02-18T10:28:35;98546.09;;;-5.28;71.51
42671;BME280;28283;55.426;37.756;2023-02-18T10:44:06;98523.38;;;-5.27;71.09
42671;BME280;28283;55.426;37.756;2023-02-18T10:59:59;98496.16;;;-4.92;69.08
42671;BME280;28283;55.426;37.756;2023-02-18T11:05:11;98492.34;;;-4.67;69.23
42671;BME280;28283;55.426;37.756;2023-02-18T11:10:18;98493.81;;;-4.21;68.36
42671;BME280;28283;55.426;37.756;2023-02-18T11:15:24;98484.59;;;-4.15;67.75
42671;BME280;28283;55.426;37.756;2023-02-18T11:20:27;98484.84;;;-3.88;67.00
42671;BME280;28283;55.426;37.756;2023-02-18T11:25:31;98466.56;;;-3.99;66.60
42671;BME280;28283;55.426;37.756;2023-02-18T11:30:37;98458.59;;;-3.88;66.51
42671;BME280;28283;55.426;37.756;2023-02-18T11:35:38;98437.88;;;-3.91;66.23
42671;BME280;28283;55.426;37.756;2023-02-18T11:40:39;98451.28;;;-4.15;67.05
42671;BME280;28283;55.426;37.756;2023-02-18T11:45:40;98430.47;;;-4.58;67.65
42671;BME280;28283;55.426;37.756;2023-02-18T11:50:41;98433.09;;;-4.58;68.19
42671;BME280;28283;55.426;37.756;2023-02-18T11:55:56;98423.50;;;-4.48;67.57
42671;BME280;28283;55.426;37.756;2023-02-18T12:00:59;98409.16;;;-4.44;66.63
42671;BME280;28283;55.426;37.756;2023-02-18T12:06:04;98409.53;;;-4.28;67.69
42671;BME280;28283;55.426;37.756;2023-02-18T12:11:25;98403.69;;;-4.00;67.27
42671;BME280;28283;55.426;37.756;2023-02-18T12:22:31;98402.88;;;-4.32;67.79
42671;BME280;28283;55.426;37.756;2023-02-18T13:00:12;98355.69;;;-4.74;68.02
42671;BME280;28283;55.426;37.756;2023-02-18T13:05:37;98349.44;;;-4.83;69.11
42671;BME280;28283;55.426;37.756;2023-02-18T13:10:50;98340.81;;;-4.94;68.96
42671;BME280;28283;55.426;37.756;2023-02-18T13:16:03;98331.78;;;-5.02;69.31
42671;BME280;28283;55.426;37.756;2023-02-18T13:21:11;98322.66;;;-5.07;68.93
42671;BME280;28283;55.426;37.756;2023-02-18T13:26:13;98305.22;;;-5.29;69.10
42671;BME280;28283;55.426;37.756;2023-02-18T13:31:22;98329.47;;;-5.16;69.05
42671;BME280;28283;55.426;37.756;2023-02-18T13:52:35;98290.34;;;-5.50;69.41
42671;BME280;28283;55.426;37.756;2023-02-18T13:57:36;98265.56;;;-5.78;69.90
42671;BME280;28283;55.426;37.756;2023-02-18T14:02:55;98264.38;;;-5.74;69.46
42671;BME280;28283;55.426;37.756;2023-02-18T14:08:11;98287.50;;;-5.58;69.42
42671;BME280;28283;55.426;37.756;2023-02-18T14:13:19;98286.97;;;-5.73;69.59
42671;BME280;28283;55.426;37.756;2023-02-18T14:19:24;98271.50;;;-5.76;70.06
42671;BME280;28283;55.426;37.756;2023-02-18T14:29:05;98262.41;;;-5.93;70.08
42671;BME280;28283;55.426;37.756;2023-02-18T14:50:20;98206.97;;;-6.19;70.93
42671;BME280;28283;55.426;37.756;2023-02-18T14:55:25;98219.34;;;-6.10;71.17
42671;BME280;28283;55.426;37.756;2023-02-18T15:00:29;98226.78;;;-6.05;71.23
42671;BME280;28283;55.426;37.756;2023-02-18T15:05:36;98210.50;;;-6.09;71.48
42671;BME280;28283;55.426;37.756;2023-02-18T15:10:47;98210.34;;;-5.96;71.43
42671;BME280;28283;55.426;37.756;2023-02-18T15:15:56;98187.88;;;-6.31;71.54
42671;BME280;28283;55.426;37.756;2023-02-18T15:21:00;98193.28;;;-6.11;71.66
42671;BME280;28283;55.426;37.756;2023-02-18T15:26:01;98158.88;;;-6.39;71.98
42671;BME280;28283;55.426;37.756;2023-02-18T15:31:02;98194.03;;;-6.21;72.23
42671;BME280;28283;55.426;37.756;2023-02-18T15:36:05;98179.06;;;-6.19;72.96
42671;BME280;28283;55.426;37.756;2023-02-18T15:41:14;98163.00;;;-6.25;71.94
42671;BME280;28283;55.426;37.756;2023-02-18T15:46:15;98166.56;;;-6.26;72.17
42671;BME280;28283;55.426;37.756;2023-02-18T15:51:21;98168.47;;;-6.17;72.41
42671;BME280;28283;55.426;37.756;2023-02-18T15:56:35;98156.97;;;-6.26;72.80
42671;BME280;28283;55.426;37.756;2023-02-18T16:01:37;98124.00;;;-6.49;72.74
42671;BME280;28283;55.426;37.756;2023-02-18T16:06:38;98140.81;;;-6.31;73.27
42671;BME280;28283;55.426;37.756;2023-02-18T16:11:46;98131.56;;;-6.35;73.51
42671;BME280;28283;55.426;37.756;2023-02-18T16:22:23;98126.41;;;-6.25;73.65
42671;BME280;28283;55.426;37.756;2023-02-18T16:27:32;98103.38;;;-6.31;73.26
42671;BME280;28283;55.426;37.756;2023-02-18T16:32:33;98108.09;;;-6.25;73.19
42671;BME280;28283;55.426;37.756;2023-02-18T16:37:33;98108.78;;;-6.23;73.31
42671;BME280;28283;55.426;37.756;2023-02-18T16:42:40;98072.59;;;-6.39;74.00
42671;BME280;28283;55.426;37.756;2023-02-18T16:47:42;98052.97;;;-6.55;73.40
42671;BME280;28283;55.426;37.756;2023-02-18T16:52:44;98078.28;;;-6.34;73.85
42671;BME280;28283;55.426;37.756;2023-02-18T16:57:45;98084.69;;;-6.27;74.19
42671;BME280;28283;55.426;37.756;2023-02-18T17:02:49;98090.69;;;-6.15;74.22
42671;BME280;28283;55.426;37.756;2023-02-18T17:07:50;98067.06;;;-6.25;74.20
42671;BME280;28283;55.426;37.756;2023-02-18T17:12:51;98073.72;;;-6.21;73.43
42671;BME280;28283;55.426;37.756;2023-02-18T17:17:52;98077.34;;;-6.12;73.96
42671;BME280;28283;55.426;37.756;2023-02-18T17:22:52;98070.72;;;-6.16;74.32
42671;BME280;28283;55.426;37.756;2023-02-18T17:27:55;98054.31;;;-6.18;73.39
42671;BME280;28283;55.426;37.756;2023-02-18T17:32:58;98061.94;;;-6.15;74.42
42671;BME280;28283;55.426;37.756;2023-02-18T17:38:00;98053.97;;;-6.13;73.99
42671;BME280;28283;55.426;37.756;2023-02-18T17:43:01;98049.88;;;-6.06;74.02
42671;BME280;28283;55.426;37.756;2023-02-18T17:48:02;98046.69;;;-6.10;74.21
42671;BME280;28283;55.426;37.756;2023-02-18T17:53:03;98031.72;;;-6.19;74.07
42671;BME280;28283;55.426;37.756;2023-02-18T17:58:04;98054.91;;;-6.15;73.96
42671;BME280;28283;55.426;37.756;2023-02-18T18:03:05;98051.19;;;-6.12;74.15
42671;BME280;28283;55.426;37.756;2023-02-18T18:08:07;97997.31;;;-6.45;74.11
42671;BME280;28283;55.426;37.756;2023-02-18T18:13:21;98047.31;;;-6.18;74.64
42671;BME280;28283;55.426;37.756;2023-02-18T18:18:22;98021.78;;;-6.25;73.99
42671;BME280;28283;55.426;37.756;2023-02-18T18:23:22;98041.94;;;-6.16;74.08
42671;BME280;28283;55.426;37.756;2023-02-18T18:28:24;98029.13;;;-6.19;74.37
42671;BME280;28283;55.426;37.756;2023-02-18T18:33:29;98029.84;;;-6.17;74.54
42671;BME280;28283;55.426;37.756;2023-02-18T18:38:30;98026.38;;;-6.18;73.95
42671;BME280;28283;55.426;37.756;2023-02-18T18:43:32;98032.19;;;-6.14;74.30
42671;BME280;28283;55.426;37.756;2023-02-18T18:48:32;98031.34;;;-6.15;74.40
42671;BME280;28283;55.426;37.756;2023-02-18T18:53:34;98012.47;;;-6.18;74.27
42671;BME280;28283;55.426;37.756;2023-02-18T18:58:35;98007.78;;;-6.24;74.09
42671;BME280;28283;55.426;37.756;2023-02-18T19:03:36;97977.66;;;-6.40;74.09
42671;BME280;28283;55.426;37.756;2023-02-18T19:08:38;98001.31;;;-6.20;74.06
42671;BME280;28283;55.426;37.756;2023-02-18T19:13:39;97971.09;;;-6.34;73.83
42671;BME280;28283;55.426;37.756;2023-02-18T19:18:39;97975.75;;;-6.38;73.63
42671;BME280;28283;55.426;37.756;2023-02-18T19:23:41;97951.31;;;-6.48;73.39
42671;BME280;28283;55.426;37.756;2023-02-18T19:28:42;97962.78;;;-6.39;72.88
42671;BME280;28283;55.426;37.756;2023-02-18T19:33:43;97974.09;;;-6.39;73.65
42671;BME280;28283;55.426;37.756;2023-02-18T19:38:46;97963.06;;;-6.42;73.23
42671;BME280;28283;55.426;37.756;2023-02-18T19:43:47;97963.06;;;-6.42;72.73
42671;BME280;28283;55.426;37.756;2023-02-18T19:48:49;97962.22;;;-6.43;72.77
42671;BME280;28283;55.426;37.756;2023-02-18T19:53:51;97937.81;;;-6.53;73.17
42671;BME280;28283;55.426;37.756;2023-02-18T19:58:54;97954.66;;;-6.46;73.33
42671;BME280;28283;55.426;37.756;2023-02-18T20:03:55;97956.25;;;-6.55;73.83
42671;BME280;28283;55.426;37.756;2023-02-18T20:08:56;97937.75;;;-6.63;72.98
42671;BME280;28283;55.426;37.756;2023-02-18T20:13:57;97949.22;;;-6.54;72.71
42671;BME280;28283;55.426;37.756;2023-02-18T20:18:57;97949.03;;;-6.62;73.42
42671;BME280;28283;55.426;37.756;2023-02-18T20:23:59;97941.34;;;-6.64;72.93
42671;BME280;28283;55.426;37.756;2023-02-18T20:29:00;97931.38;;;-6.70;73.27
42671;BME280;28283;55.426;37.756;2023-02-18T20:34:00;97902.69;;;-6.81;73.36
42671;BME280;28283;55.426;37.756;2023-02-18T20:39:01;97934.09;;;-6.72;73.05
42671;BME280;28283;55.426;37.756;2023-02-18T20:44:03;97920.16;;;-6.82;73.28
42671;BME280;28283;55.426;37.756;2023-02-18T20:49:10;97925.69;;;-6.75;74.48
42671;BME280;28283;55.426;37.756;2023-02-18T20:54:13;97908.38;;;-6.76;74.33
42671;BME280;28283;55.426;37.756;2023-02-18T20:59:17;97916.81;;;-6.84;73.82
42671;BME280;28283;55.426;37.756;2023-02-18T21:04:19;97919.94;;;-6.90;73.67
42671;BME280;28283;55.426;37.756;2023-02-18T21:09:20;97893.31;;;-7.05;75.08
42671;BME280;28283;55.426;37.756;2023-02-18T21:14:20;97893.69;;;-7.10;74.12
42671;BME280;28283;55.426;37.756;2023-02-18T21:19:21;97905.63;;;-6.96;74.26
42671;BME280;28283;55.426;37.756;2023-02-18T21:24:22;97890.94;;;-7.08;75.24
42671;BME280;28283;55.426;37.756;2023-02-18T21:29:22;97881.97;;;-7.15;75.19
42671;BME280;28283;55.426;37.756;2023-02-18T21:34:23;97882.19;;;-7.18;75.37
42671;BME280;28283;55.426;37.756;2023-02-18T21:39:25;97893.22;;;-7.15;75.18
42671;BME280;28283;55.426;37.756;2023-02-18T21:44:26;97885.50;;;-7.16;75.12
42671;BME280;28283;55.426;37.756;2023-02-18T21:49:27;97847.69;;;-7.54;74.87
42671;BME280;28283;55.426;37.756;2023-02-18T21:54:39;97878.81;;;-7.30;74.86
42671;BME280;28283;55.426;37.756;2023-02-18T21:59:40;97874.44;;;-7.30;75.97
42671;BME280;28283;55.426;37.756;2023-02-18T22:04:41;97872.09;;;-7.44;74.81
42671;BME280;28283;55.426;37.756;2023-02-18T22:09:42;97619.09;;;-9.17;74.83
42671;BME280;28283;55.426;37.756;2023-02-18T22:14:43;97888.69;;;-7.45;75.30
42671;BME280;28283;55.426;37.756;2023-02-18T22:19:44;97865.50;;;-7.59;75.49
42671;BME280;28283;55.426;37.756;2023-02-18T22:24:45;97793.06;;;-7.99;75.41
42671;BME280;28283;55.426;37.756;2023-02-18T22:29:46;97854.41;;;-7.73;74.89
42671;BME280;28283;55.426;37.756;2023-02-18T22:34:46;97878.44;;;-7.58;75.48
42671;BME280;28283;55.426;37.756;2023-02-18T22:39:48;97816.16;;;-7.95;75.97
42671;BME280;28283;55.426;37.756;2023-02-18T22:44:51;97801.13;;;-8.02;75.80
42671;BME280;28283;55.426;37.756;2023-02-18T22:49:53;97761.63;;;-8.41;75.39
42671;BME280;28283;55.426;37.756;2023-02-18T22:54:53;97793.09;;;-8.22;75.00
42671;BME280;28283;55.426;37.756;2023-02-18T22:59:54;97887.56;;;-7.63;74.90
42671;BME280;28283;55.426;37.756;2023-02-18T23:04:55;97856.44;;;-7.76;75.53
42671;BME280;28283;55.426;37.756;2023-02-18T23:09:55;97871.50;;;-7.80;76.34
42671;BME280;28283;55.426;37.756;2023-02-18T23:14:56;97857.41;;;-7.89;75.30
42671;BME280;28283;55.426;37.756;2023-02-18T23:19:57;97818.69;;;-8.16;75.68
42671;BME280;28283;55.426;37.756;2023-02-18T23:24:58;97848.16;;;-7.93;75.83
42671;BME280;28283;55.426;37.756;2023-02-18T23:29:59;97858.56;;;-7.81;76.30
42671;BME280;28283;55.426;37.756;2023-02-18T23:35:00;97757.75;;;-8.58;75.52
42671;BME280;28283;55.426;37.756;2023-02-18T23:40:01;97703.44;;;-8.74;76.15
42671;BME280;28283;55.426;37.756;2023-02-18T23:45:01;97833.34;;;-7.92;75.84
42671;BME280;28283;55.426;37.756;2023-02-18T23:50:02;97790.84;;;-8.15;75.44
42671;BME280;28283;55.426;37.756;2023-02-18T23:55:03;97810.22;;;-7.97;76.49
